sensor_id;sensor_type;location;lat;lon;timestamp;temperature;humidity
6008;DHT22;3032;49.484;11.112;2023-03-31T00:01:26;12.50;99.90
6008;DHT22;3032;49.484;11.112;2023-03-31T00:03:52;12.40;99.90
6008;DHT22;3032;49.484;11.112;2023-03-31T00:06:26;12.50;99.90
6008;DHT22;3032;49.484;11.112;2023-03-31T00:08:52;12.60;99.90
6008;DHT22;3032;49.484;11.112;2023-03-31T00:11:19;12.60;99.90
6008;DHT22;3032;49.484;11.112;2023-03-31T00:13:45;12.20;99.90
6008;DHT22;3032;49.484;11.112;2023-03-31T00:16:10;11.80;99.90
6008;DHT22;3032;49.484;11.112;2023-03-31T00:18:36;11.90;99.90
6008;DHT22;3032;49.484;11.112;2023-03-31T00:21:11;12.00;99.90
6008;DHT22;3032;49.484;11.112;2023-03-31T00:23:53;12.30;99.90
6008;DHT22;3032;49.484;11.112;2023-03-31T00:26:19;12.30;99.90
6008;DHT22;3032;49.484;11.112;2023-03-31T00:28:47;12.40;99.90
6008;DHT22;3032;49.484;11.112;2023-03-31T00:31:12;12.40;99.90
6008;DHT22;3032;49.484;11.112;2023-03-31T00:33:38;12.40;99.90
6008;DHT22;3032;49.484;11.112;2023-03-31T00:36:03;12.20;99.90
6008;DHT22;3032;49.484;11.112;2023-03-31T00:38:31;11.80;99.90
6008;DHT22;3032;49.484;11.112;2023-03-31T00:40:57;11.50;99.90
6008;DHT22;3032;49.484;11.112;2023-03-31T00:43:36;11.70;99.90
6008;DHT22;3032;49.484;11.112;2023-03-31T00:46:14;11.80;99.90
6008;DHT22;3032;49.484;11.112;2023-03-31T00:48:54;11.60;99.90
6008;DHT22;3032;49.484;11.112;2023-03-31T00:51:25;11.90;99.90
6008;DHT22;3032;49.484;11.112;2023-03-31T00:53:58;12.00;99.90
6008;DHT22;3032;49.484;11.112;2023-03-31T00:56:28;11.70;99.90
6008;DHT22;3032;49.484;11.112;2023-03-31T00:59:00;11.50;99.90
6008;DHT22;3032;49.484;11.112;2023-03-31T01:01:26;11.60;99.90
6008;DHT22;3032;49.484;11.112;2023-03-31T01:03:52;11.70;99.90
6008;DHT22;3032;49.484;11.112;2023-03-31T01:06:18;11.80;99.90
6008;DHT22;3032;49.484;11.112;2023-03-31T01:08:49;12.00;99.90
6008;DHT22;3032;49.484;11.112;2023-03-31T01:11:18;12.10;99.90
6008;DHT22;3032;49.484;11.112;2023-03-31T01:13:45;12.00;99.90
6008;DHT22;3032;49.484;11.112;2023-03-31T01:16:15;11.60;99.90
6008;DHT22;3032;49.484;11.112;2023-03-31T01:18:41;11.20;99.90
6008;DHT22;3032;49.484;11.112;2023-03-31T01:28:00;11.20;99.90
6008;DHT22;3032;49.484;11.112;2023-03-31T01:30:31;11.30;99.90
6008;DHT22;3032;49.484;11.112;2023-03-31T01:33:14;11.10;99.90
6008;DHT22;3032;49.484;11.112;2023-03-31T01:44:43;10.80;99.90
6008;DHT22;3032;49.484;11.112;2023-03-31T01:47:19;10.60;99.90
6008;DHT22;3032;49.484;11.112;2023-03-31T01:53:03;10.70;99.90
6008;DHT22;3032;49.484;11.112;2023-03-31T01:58:04;10.60;99.90
6008;DHT22;3032;49.484;11.112;2023-03-31T02:00:33;10.70;99.90
6008;DHT22;3032;49.484;11.112;2023-03-31T02:03:08;10.60;99.90
6008;DHT22;3032;49.484;11.112;2023-03-31T02:05:46;10.50;99.90
6008;DHT22;3032;49.484;11.112;2023-03-31T02:08:24;10.90;99.90
6008;DHT22;3032;49.484;11.112;2023-03-31T02:10:52;10.70;99.90
6008;DHT22;3032;49.484;11.112;2023-03-31T02:13:19;10.80;99.90
6008;DHT22;3032;49.484;11.112;2023-03-31T02:15:50;10.50;99.90
6008;DHT22;3032;49.484;11.112;2023-03-31T02:18:20;10.70;99.90
6008;DHT22;3032;49.484;11.112;2023-03-31T02:20:51;11.10;99.90
6008;DHT22;3032;49.484;11.112;2023-03-31T02:23:23;10.90;99.90
6008;DHT22;3032;49.484;11.112;2023-03-31T02:25:52;10.80;99.90
6008;DHT22;3032;49.484;11.112;2023-03-31T02:28:24;10.80;99.90
6008;DHT22;3032;49.484;11.112;2023-03-31T02:33:43;11.00;99.90
6008;DHT22;3032;49.484;11.112;2023-03-31T02:36:09;10.80;99.90
6008;DHT22;3032;49.484;11.112;2023-03-31T02:38:43;10.70;99.90
6008;DHT22;3032;49.484;11.112;2023-03-31T02:41:10;10.70;99.90
6008;DHT22;3032;49.484;11.112;2023-03-31T02:43:37;11.10;99.90
6008;DHT22;3032;49.484;11.112;2023-03-31T02:46:03;11.10;99.90
6008;DHT22;3032;49.484;11.112;2023-03-31T02:48:31;11.20;99.90
6008;DHT22;3032;49.484;11.112;2023-03-31T02:59:31;10.70;99.90
6008;DHT22;3032;49.484;11.112;2023-03-31T03:02:08;10.80;99.90
6008;DHT22;3032;49.484;11.112;2023-03-31T03:10:49;10.70;99.90
6008;DHT22;3032;49.484;11.112;2023-03-31T03:15:55;10.30;99.90
6008;DHT22;3032;49.484;11.112;2023-03-31T03:18:23;10.40;99.90
6008;DHT22;3032;49.484;11.112;2023-03-31T03:20:48;10.50;99.90
6008;DHT22;3032;49.484;11.112;2023-03-31T03:23:15;10.50;99.90
6008;DHT22;3032;49.484;11.112;2023-03-31T03:25:42;10.40;99.90
6008;DHT22;3032;49.484;11.112;2023-03-31T03:28:08;10.30;99.90
6008;DHT22;3032;49.484;11.112;2023-03-31T03:30:34;10.60;99.90
6008;DHT22;3032;49.484;11.112;2023-03-31T03:33:00;10.80;99.90
6008;DHT22;3032;49.484;11.112;2023-03-31T03:35:25;10.90;99.90
6008;DHT22;3032;49.484;11.112;2023-03-31T03:37:51;10.90;99.90
6008;DHT22;3032;49.484;11.112;2023-03-31T03:40:16;10.70;99.90
6008;DHT22;3032;49.484;11.112;2023-03-31T03:42:42;11.10;99.90
6008;DHT22;3032;49.484;11.112;2023-03-31T03:45:08;11.20;99.90
6008;DHT22;3032;49.484;11.112;2023-03-31T03:47:34;11.20;99.90
6008;DHT22;3032;49.484;11.112;2023-03-31T03:50:01;11.10;99.90
6008;DHT22;3032;49.484;11.112;2023-03-31T03:52:26;11.00;99.90
6008;DHT22;3032;49.484;11.112;2023-03-31T03:54:52;10.90;99.90
6008;DHT22;3032;49.484;11.112;2023-03-31T03:57:17;10.90;99.90
6008;DHT22;3032;49.484;11.112;2023-03-31T03:59:43;11.00;99.90
6008;DHT22;3032;49.484;11.112;2023-03-31T04:02:09;10.60;99.90
6008;DHT22;3032;49.484;11.112;2023-03-31T04:04:34;10.20;99.90
6008;DHT22;3032;49.484;11.112;2023-03-31T04:07:00;10.10;99.90
6008;DHT22;3032;49.484;11.112;2023-03-31T04:09:25;10.10;99.90
6008;DHT22;3032;49.484;11.112;2023-03-31T04:11:51;10.00;99.90
6008;DHT22;3032;49.484;11.112;2023-03-31T04:14:16;10.10;99.90
6008;DHT22;3032;49.484;11.112;2023-03-31T04:16:42;10.40;99.90
6008;DHT22;3032;49.484;11.112;2023-03-31T04:19:11;10.30;99.90
6008;DHT22;3032;49.484;11.112;2023-03-31T04:21:41;10.30;99.90
6008;DHT22;3032;49.484;11.112;2023-03-31T04:24:10;10.50;99.90
6008;DHT22;3032;49.484;11.112;2023-03-31T04:26:40;10.40;99.90
6008;DHT22;3032;49.484;11.112;2023-03-31T04:29:10;10.60;99.90
6008;DHT22;3032;49.484;11.112;2023-03-31T04:31:37;10.50;99.90
6008;DHT22;3032;49.484;11.112;2023-03-31T04:34:03;10.40;99.90
6008;DHT22;3032;49.484;11.112;2023-03-31T04:36:32;10.60;99.90
6008;DHT22;3032;49.484;11.112;2023-03-31T04:38:58;10.80;99.90
6008;DHT22;3032;49.484;11.112;2023-03-31T04:41:25;10.70;99.90
6008;DHT22;3032;49.484;11.112;2023-03-31T04:43:52;10.70;99.90
6008;DHT22;3032;49.484;11.112;2023-03-31T04:46:17;10.90;99.90
6008;DHT22;3032;49.484;11.112;2023-03-31T04:48:43;10.60;99.90
6008;DHT22;3032;49.484;11.112;2023-03-31T04:51:09;10.60;99.90
6008;DHT22;3032;49.484;11.112;2023-03-31T04:53:35;10.40;99.90
6008;DHT22;3032;49.484;11.112;2023-03-31T04:56:00;10.60;99.90
6008;DHT22;3032;49.484;11.112;2023-03-31T04:58:26;10.90;99.90
6008;DHT22;3032;49.484;11.112;2023-03-31T05:00:52;10.70;99.90
6008;DHT22;3032;49.484;11.112;2023-03-31T05:03:18;11.40;99.90
6008;DHT22;3032;49.484;11.112;2023-03-31T05:05:44;10.80;99.90
6008;DHT22;3032;49.484;11.112;2023-03-31T05:08:09;10.80;99.90
6008;DHT22;3032;49.484;11.112;2023-03-31T05:10:35;10.90;99.90
6008;DHT22;3032;49.484;11.112;2023-03-31T05:13:01;10.60;99.90
6008;DHT22;3032;49.484;11.112;2023-03-31T05:15:26;10.70;99.90
6008;DHT22;3032;49.484;11.112;2023-03-31T05:17:52;10.90;99.90
6008;DHT22;3032;49.484;11.112;2023-03-31T05:20:18;11.10;99.90
6008;DHT22;3032;49.484;11.112;2023-03-31T05:22:46;11.40;99.90
6008;DHT22;3032;49.484;11.112;2023-03-31T05:25:13;11.50;99.90
6008;DHT22;3032;49.484;11.112;2023-03-31T05:27:44;11.60;99.90
6008;DHT22;3032;49.484;11.112;2023-03-31T05:30:11;11.40;99.90
6008;DHT22;3032;49.484;11.112;2023-03-31T05:32:37;11.30;99.90
6008;DHT22;3032;49.484;11.112;2023-03-31T05:35:03;11.40;99.90
6008;DHT22;3032;49.484;11.112;2023-03-31T05:37:29;11.50;99.90
6008;DHT22;3032;49.484;11.112;2023-03-31T05:39:54;11.40;99.90
6008;DHT22;3032;49.484;11.112;2023-03-31T05:42:20;11.40;99.90
6008;DHT22;3032;49.484;11.112;2023-03-31T05:44:46;11.10;99.90
6008;DHT22;3032;49.484;11.112;2023-03-31T05:47:11;11.10;99.90
6008;DHT22;3032;49.484;11.112;2023-03-31T05:49:37;11.00;99.90
6008;DHT22;3032;49.484;11.112;2023-03-31T05:52:04;10.90;99.90
6008;DHT22;3032;49.484;11.112;2023-03-31T05:54:30;10.90;99.90
6008;DHT22;3032;49.484;11.112;2023-03-31T05:56:56;10.80;99.90
6008;DHT22;3032;49.484;11.112;2023-03-31T05:59:21;10.60;99.90
6008;DHT22;3032;49.484;11.112;2023-03-31T06:01:47;10.50;99.90
6008;DHT22;3032;49.484;11.112;2023-03-31T06:04:13;10.60;99.90
6008;DHT22;3032;49.484;11.112;2023-03-31T06:06:38;10.60;99.90
6008;DHT22;3032;49.484;11.112;2023-03-31T06:09:05;10.30;99.90
6008;DHT22;3032;49.484;11.112;2023-03-31T06:11:31;10.20;99.90
6008;DHT22;3032;49.484;11.112;2023-03-31T06:13:56;10.30;99.90
6008;DHT22;3032;49.484;11.112;2023-03-31T06:16:22;10.30;99.90
6008;DHT22;3032;49.484;11.112;2023-03-31T06:18:47;10.30;99.90
6008;DHT22;3032;49.484;11.112;2023-03-31T06:21:16;10.40;99.90
6008;DHT22;3032;49.484;11.112;2023-03-31T06:23:43;10.50;99.90
6008;DHT22;3032;49.484;11.112;2023-03-31T06:26:20;11.10;99.90
6008;DHT22;3032;49.484;11.112;2023-03-31T06:28:47;10.70;99.90
6008;DHT22;3032;49.484;11.112;2023-03-31T06:31:15;10.60;99.90
6008;DHT22;3032;49.484;11.112;2023-03-31T06:33:42;10.40;99.90
6008;DHT22;3032;49.484;11.112;2023-03-31T06:36:08;10.40;99.90
6008;DHT22;3032;49.484;11.112;2023-03-31T06:38:36;10.60;99.90
6008;DHT22;3032;49.484;11.112;2023-03-31T06:41:05;11.10;99.90
6008;DHT22;3032;49.484;11.112;2023-03-31T06:43:31;11.30;99.90
6008;DHT22;3032;49.484;11.112;2023-03-31T06:45:57;11.20;99.90
6008;DHT22;3032;49.484;11.112;2023-03-31T06:48:23;10.70;99.90
6008;DHT22;3032;49.484;11.112;2023-03-31T06:50:49;10.60;99.90
6008;DHT22;3032;49.484;11.112;2023-03-31T06:53:15;11.20;99.90
6008;DHT22;3032;49.484;11.112;2023-03-31T06:55:41;11.10;99.90
6008;DHT22;3032;49.484;11.112;2023-03-31T06:58:06;10.70;99.90
6008;DHT22;3032;49.484;11.112;2023-03-31T07:00:32;10.70;99.90
6008;DHT22;3032;49.484;11.112;2023-03-31T07:02:58;10.40;99.90
6008;DHT22;3032;49.484;11.112;2023-03-31T07:05:24;10.40;99.90
6008;DHT22;3032;49.484;11.112;2023-03-31T07:07:58;10.00;99.90
6008;DHT22;3032;49.484;11.112;2023-03-31T07:10:25;10.30;99.90
6008;DHT22;3032;49.484;11.112;2023-03-31T07:12:51;10.20;99.90
6008;DHT22;3032;49.484;11.112;2023-03-31T07:15:17;9.90;99.90
6008;DHT22;3032;49.484;11.112;2023-03-31T07:17:43;9.90;99.90
6008;DHT22;3032;49.484;11.112;2023-03-31T07:20:12;9.90;99.90
6008;DHT22;3032;49.484;11.112;2023-03-31T07:22:42;9.90;99.90
6008;DHT22;3032;49.484;11.112;2023-03-31T07:25:10;9.70;99.90
6008;DHT22;3032;49.484;11.112;2023-03-31T07:27:36;9.60;99.90
6008;DHT22;3032;49.484;11.112;2023-03-31T07:30:10;9.40;99.90
6008;DHT22;3032;49.484;11.112;2023-03-31T07:32:36;9.70;99.90
6008;DHT22;3032;49.484;11.112;2023-03-31T07:35:05;9.70;99.90
6008;DHT22;3032;49.484;11.112;2023-03-31T07:37:39;9.70;99.90
6008;DHT22;3032;49.484;11.112;2023-03-31T07:40:06;9.70;99.90
6008;DHT22;3032;49.484;11.112;2023-03-31T07:42:33;9.60;99.90
6008;DHT22;3032;49.484;11.112;2023-03-31T07:44:59;9.50;99.90
6008;DHT22;3032;49.484;11.112;2023-03-31T07:47:25;9.60;99.90
6008;DHT22;3032;49.484;11.112;2023-03-31T07:49:50;9.80;99.90
6008;DHT22;3032;49.484;11.112;2023-03-31T07:52:16;9.80;99.90
6008;DHT22;3032;49.484;11.112;2023-03-31T07:54:44;9.70;99.90
6008;DHT22;3032;49.484;11.112;2023-03-31T07:57:10;9.60;99.90
6008;DHT22;3032;49.484;11.112;2023-03-31T07:59:36;9.70;99.90
6008;DHT22;3032;49.484;11.112;2023-03-31T08:02:01;9.70;99.90
6008;DHT22;3032;49.484;11.112;2023-03-31T08:04:27;9.60;99.90
6008;DHT22;3032;49.484;11.112;2023-03-31T08:06:52;9.60;99.90
6008;DHT22;3032;49.484;11.112;2023-03-31T08:09:18;9.70;99.90
6008;DHT22;3032;49.484;11.112;2023-03-31T08:11:44;9.80;99.90
6008;DHT22;3032;49.484;11.112;2023-03-31T08:14:10;9.80;99.90
6008;DHT22;3032;49.484;11.112;2023-03-31T08:16:35;10.00;99.90
6008;DHT22;3032;49.484;11.112;2023-03-31T08:19:01;9.80;99.90
6008;DHT22;3032;49.484;11.112;2023-03-31T08:21:28;9.60;99.90
6008;DHT22;3032;49.484;11.112;2023-03-31T08:23:54;9.50;99.90
6008;DHT22;3032;49.484;11.112;2023-03-31T08:26:20;9.40;99.90
6008;DHT22;3032;49.484;11.112;2023-03-31T08:28:48;9.70;99.90
6008;DHT22;3032;49.484;11.112;2023-03-31T08:31:15;9.40;99.90
6008;DHT22;3032;49.484;11.112;2023-03-31T08:33:42;9.40;99.90
6008;DHT22;3032;49.484;11.112;2023-03-31T08:36:08;9.50;99.90
6008;DHT22;3032;49.484;11.112;2023-03-31T08:38:38;9.60;99.90
6008;DHT22;3032;49.484;11.112;2023-03-31T08:41:40;9.60;99.90
6008;DHT22;3032;49.484;11.112;2023-03-31T08:44:20;10.10;99.90
6008;DHT22;3032;49.484;11.112;2023-03-31T08:46:48;9.80;99.90
6008;DHT22;3032;49.484;11.112;2023-03-31T08:49:17;9.80;99.90
6008;DHT22;3032;49.484;11.112;2023-03-31T08:51:50;9.70;99.90
6008;DHT22;3032;49.484;11.112;2023-03-31T08:56:48;9.80;99.90
6008;DHT22;3032;49.484;11.112;2023-03-31T08:59:35;10.10;99.90
6008;DHT22;3032;49.484;11.112;2023-03-31T09:10:22;11.60;99.90
6008;DHT22;3032;49.484;11.112;2023-03-31T09:13:10;12.20;99.90
6008;DHT22;3032;49.484;11.112;2023-03-31T09:18:37;12.30;99.90
6008;DHT22;3032;49.484;11.112;2023-03-31T09:24:11;12.20;99.90
6008;DHT22;3032;49.484;11.112;2023-03-31T09:29:15;11.20;99.90
6008;DHT22;3032;49.484;11.112;2023-03-31T09:31:44;11.20;99.90
6008;DHT22;3032;49.484;11.112;2023-03-31T09:34:18;11.30;99.90
6008;DHT22;3032;49.484;11.112;2023-03-31T09:36:46;11.40;99.90
6008;DHT22;3032;49.484;11.112;2023-03-31T09:39:13;11.30;99.90
6008;DHT22;3032;49.484;11.112;2023-03-31T09:41:45;11.40;99.90
6008;DHT22;3032;49.484;11.112;2023-03-31T09:46:52;11.70;99.90
6008;DHT22;3032;49.484;11.112;2023-03-31T09:49:21;12.00;99.90
6008;DHT22;3032;49.484;11.112;2023-03-31T09:51:52;12.40;99.90
6008;DHT22;3032;49.484;11.112;2023-03-31T09:54:30;12.90;99.90
6008;DHT22;3032;49.484;11.112;2023-03-31T09:56:59;14.50;99.90
6008;DHT22;3032;49.484;11.112;2023-03-31T09:59:33;17.20;99.90
6008;DHT22;3032;49.484;11.112;2023-03-31T10:02:03;19.10;99.90
6008;DHT22;3032;49.484;11.112;2023-03-31T10:04:32;20.40;99.90
6008;DHT22;3032;49.484;11.112;2023-03-31T10:07:00;21.50;99.90
6008;DHT22;3032;49.484;11.112;2023-03-31T10:09:32;22.50;99.90
6008;DHT22;3032;49.484;11.112;2023-03-31T10:12:02;23.60;99.90
6008;DHT22;3032;49.484;11.112;2023-03-31T10:14:39;23.50;99.90
6008;DHT22;3032;49.484;11.112;2023-03-31T10:17:05;22.00;99.90
6008;DHT22;3032;49.484;11.112;2023-03-31T10:19:35;21.60;99.90
6008;DHT22;3032;49.484;11.112;2023-03-31T10:24:52;18.20;99.90
6008;DHT22;3032;49.484;11.112;2023-03-31T10:27:24;17.50;99.90
6008;DHT22;3032;49.484;11.112;2023-03-31T10:29:56;17.30;99.90
6008;DHT22;3032;49.484;11.112;2023-03-31T10:34:54;16.50;99.90
6008;DHT22;3032;49.484;11.112;2023-03-31T10:37:23;16.30;99.90
6008;DHT22;3032;49.484;11.112;2023-03-31T10:40:13;15.90;99.90
6008;DHT22;3032;49.484;11.112;2023-03-31T10:42:39;15.90;99.90
6008;DHT22;3032;49.484;11.112;2023-03-31T10:47:48;15.10;99.90
6008;DHT22;3032;49.484;11.112;2023-03-31T10:50:14;15.30;99.90
6008;DHT22;3032;49.484;11.112;2023-03-31T10:52:45;15.70;99.90
6008;DHT22;3032;49.484;11.112;2023-03-31T10:55:23;16.10;99.90
6008;DHT22;3032;49.484;11.112;2023-03-31T11:21:26;17.10;99.90
6008;DHT22;3032;49.484;11.112;2023-03-31T11:24:04;17.00;99.90
6008;DHT22;3032;49.484;11.112;2023-03-31T11:26:55;17.20;99.90
6008;DHT22;3032;49.484;11.112;2023-03-31T11:29:29;17.40;99.90
6008;DHT22;3032;49.484;11.112;2023-03-31T11:32:40;18.30;99.90
6008;DHT22;3032;49.484;11.112;2023-03-31T11:35:40;19.60;99.90
6008;DHT22;3032;49.484;11.112;2023-03-31T11:46:16;16.50;99.90
6008;DHT22;3032;49.484;11.112;2023-03-31T11:49:08;16.00;99.90
6008;DHT22;3032;49.484;11.112;2023-03-31T11:52:01;16.10;99.90
6008;DHT22;3032;49.484;11.112;2023-03-31T11:54:45;16.40;99.90
6008;DHT22;3032;49.484;11.112;2023-03-31T11:59:57;17.50;99.90
6008;DHT22;3032;49.484;11.112;2023-03-31T12:05:22;16.30;99.90
6008;DHT22;3032;49.484;11.112;2023-03-31T12:08:06;15.80;99.90
6008;DHT22;3032;49.484;11.112;2023-03-31T12:10:36;15.80;99.90
6008;DHT22;3032;49.484;11.112;2023-03-31T12:13:16;15.80;99.90
6008;DHT22;3032;49.484;11.112;2023-03-31T12:16:10;16.40;99.90
6008;DHT22;3032;49.484;11.112;2023-03-31T12:18:42;17.10;99.90
6008;DHT22;3032;49.484;11.112;2023-03-31T12:21:09;17.10;99.90
6008;DHT22;3032;49.484;11.112;2023-03-31T12:23:42;17.20;99.90
6008;DHT22;3032;49.484;11.112;2023-03-31T12:28:57;18.40;99.90
6008;DHT22;3032;49.484;11.112;2023-03-31T12:31:26;18.50;99.90
6008;DHT22;3032;49.484;11.112;2023-03-31T12:34:06;18.40;99.90
6008;DHT22;3032;49.484;11.112;2023-03-31T12:39:39;19.30;99.90
6008;DHT22;3032;49.484;11.112;2023-03-31T12:50:40;18.20;99.90
6008;DHT22;3032;49.484;11.112;2023-03-31T12:53:23;17.70;99.90
6008;DHT22;3032;49.484;11.112;2023-03-31T12:55:55;17.60;99.90
6008;DHT22;3032;49.484;11.112;2023-03-31T13:05:59;18.00;99.90
6008;DHT22;3032;49.484;11.112;2023-03-31T13:08:53;18.40;99.90
6008;DHT22;3032;49.484;11.112;2023-03-31T13:16:40;12.10;99.90
6008;DHT22;3032;49.484;11.112;2023-03-31T13:19:06;10.70;99.90
6008;DHT22;3032;49.484;11.112;2023-03-31T13:21:56;10.50;99.90
6008;DHT22;3032;49.484;11.112;2023-03-31T13:24:23;10.60;99.90
6008;DHT22;3032;49.484;11.112;2023-03-31T13:26:50;10.60;99.90
6008;DHT22;3032;49.484;11.112;2023-03-31T13:34:48;11.70;99.90
6008;DHT22;3032;49.484;11.112;2023-03-31T13:40:29;13.80;99.90
6008;DHT22;3032;49.484;11.112;2023-03-31T13:52:01;17.30;99.90
6008;DHT22;3032;49.484;11.112;2023-03-31T13:55:05;17.80;99.90
6008;DHT22;3032;49.484;11.112;2023-03-31T13:58:19;17.70;99.90
6008;DHT22;3032;49.484;11.112;2023-03-31T14:01:15;18.00;99.90
6008;DHT22;3032;49.484;11.112;2023-03-31T14:06:19;16.80;99.90
6008;DHT22;3032;49.484;11.112;2023-03-31T14:08:54;17.20;99.90
6008;DHT22;3032;49.484;11.112;2023-03-31T14:11:31;17.30;99.90
6008;DHT22;3032;49.484;11.112;2023-03-31T14:14:11;17.20;99.90
6008;DHT22;3032;49.484;11.112;2023-03-31T14:16:39;16.50;99.90
6008;DHT22;3032;49.484;11.112;2023-03-31T14:19:25;16.40;99.90
6008;DHT22;3032;49.484;11.112;2023-03-31T14:24:52;15.90;99.90
6008;DHT22;3032;49.484;11.112;2023-03-31T14:33:13;15.90;99.90
6008;DHT22;3032;49.484;11.112;2023-03-31T14:35:49;15.50;99.90
6008;DHT22;3032;49.484;11.112;2023-03-31T14:38:21;15.60;99.90
6008;DHT22;3032;49.484;11.112;2023-03-31T14:40:50;15.30;99.90
6008;DHT22;3032;49.484;11.112;2023-03-31T14:43:22;15.30;99.90
6008;DHT22;3032;49.484;11.112;2023-03-31T14:45:57;15.30;99.90
6008;DHT22;3032;49.484;11.112;2023-03-31T14:48:23;15.40;99.90
6008;DHT22;3032;49.484;11.112;2023-03-31T14:50:49;15.30;99.90
6008;DHT22;3032;49.484;11.112;2023-03-31T14:53:18;14.90;99.90
6008;DHT22;3032;49.484;11.112;2023-03-31T14:55:47;14.70;99.90
6008;DHT22;3032;49.484;11.112;2023-03-31T14:58:22;14.70;99.90
6008;DHT22;3032;49.484;11.112;2023-03-31T15:00:48;14.80;99.90
6008;DHT22;3032;49.484;11.112;2023-03-31T15:03:15;15.30;99.90
6008;DHT22;3032;49.484;11.112;2023-03-31T15:05:41;15.30;99.90
6008;DHT22;3032;49.484;11.112;2023-03-31T15:08:16;14.80;99.90
6008;DHT22;3032;49.484;11.112;2023-03-31T15:10:47;14.60;99.90
6008;DHT22;3032;49.484;11.112;2023-03-31T15:13:18;14.20;99.90
6008;DHT22;3032;49.484;11.112;2023-03-31T15:15:45;14.20;99.90
6008;DHT22;3032;49.484;11.112;2023-03-31T15:18:11;14.50;99.90
6008;DHT22;3032;49.484;11.112;2023-03-31T15:20:40;14.50;99.90
6008;DHT22;3032;49.484;11.112;2023-03-31T15:23:35;14.50;99.90
6008;DHT22;3032;49.484;11.112;2023-03-31T15:26:08;14.60;99.90
6008;DHT22;3032;49.484;11.112;2023-03-31T15:28:48;14.50;99.90
6008;DHT22;3032;49.484;11.112;2023-03-31T15:31:14;14.60;99.90
6008;DHT22;3032;49.484;11.112;2023-03-31T15:33:41;14.80;99.90
6008;DHT22;3032;49.484;11.112;2023-03-31T15:36:07;14.60;99.90
6008;DHT22;3032;49.484;11.112;2023-03-31T15:38:35;14.90;99.90
6008;DHT22;3032;49.484;11.112;2023-03-31T15:41:01;14.90;99.90
6008;DHT22;3032;49.484;11.112;2023-03-31T15:43:31;14.80;99.90
6008;DHT22;3032;49.484;11.112;2023-03-31T15:49:04;14.70;99.90
6008;DHT22;3032;49.484;11.112;2023-03-31T15:51:36;14.90;99.90
6008;DHT22;3032;49.484;11.112;2023-03-31T15:54:01;15.10;99.90
6008;DHT22;3032;49.484;11.112;2023-03-31T15:56:40;15.30;99.90
6008;DHT22;3032;49.484;11.112;2023-03-31T15:59:21;15.20;99.90
6008;DHT22;3032;49.484;11.112;2023-03-31T16:01:48;15.20;99.90
6008;DHT22;3032;49.484;11.112;2023-03-31T16:04:15;15.10;99.90
6008;DHT22;3032;49.484;11.112;2023-03-31T16:06:48;14.80;99.90
6008;DHT22;3032;49.484;11.112;2023-03-31T16:09:20;14.70;99.90
6008;DHT22;3032;49.484;11.112;2023-03-31T16:11:52;14.40;99.90
6008;DHT22;3032;49.484;11.112;2023-03-31T16:14:26;14.30;99.90
6008;DHT22;3032;49.484;11.112;2023-03-31T16:16:57;14.30;99.90
6008;DHT22;3032;49.484;11.112;2023-03-31T16:19:27;14.10;99.90
6008;DHT22;3032;49.484;11.112;2023-03-31T16:21:57;14.00;99.90
6008;DHT22;3032;49.484;11.112;2023-03-31T16:24:31;14.00;99.90
6008;DHT22;3032;49.484;11.112;2023-03-31T16:27:01;14.20;99.90
6008;DHT22;3032;49.484;11.112;2023-03-31T16:29:31;14.10;99.90
6008;DHT22;3032;49.484;11.112;2023-03-31T16:34:32;13.90;99.90
6008;DHT22;3032;49.484;11.112;2023-03-31T16:36:57;13.80;99.90
6008;DHT22;3032;49.484;11.112;2023-03-31T16:39:23;14.00;99.90
6008;DHT22;3032;49.484;11.112;2023-03-31T16:41:48;14.10;99.90
6008;DHT22;3032;49.484;11.112;2023-03-31T16:44:14;14.20;99.90
6008;DHT22;3032;49.484;11.112;2023-03-31T16:46:39;14.10;99.90
6008;DHT22;3032;49.484;11.112;2023-03-31T16:49:05;14.10;99.90
6008;DHT22;3032;49.484;11.112;2023-03-31T16:51:31;14.00;99.90
6008;DHT22;3032;49.484;11.112;2023-03-31T16:53:56;14.10;99.90
6008;DHT22;3032;49.484;11.112;2023-03-31T16:56:22;14.00;99.90
6008;DHT22;3032;49.484;11.112;2023-03-31T16:58:47;14.20;99.90
6008;DHT22;3032;49.484;11.112;2023-03-31T17:01:13;13.90;99.90
6008;DHT22;3032;49.484;11.112;2023-03-31T17:03:39;13.60;99.90
6008;DHT22;3032;49.484;11.112;2023-03-31T17:06:11;13.40;99.90
6008;DHT22;3032;49.484;11.112;2023-03-31T17:08:37;13.30;99.90
6008;DHT22;3032;49.484;11.112;2023-03-31T17:11:09;13.20;99.90
6008;DHT22;3032;49.484;11.112;2023-03-31T17:13:37;13.00;99.90
6008;DHT22;3032;49.484;11.112;2023-03-31T17:16:04;12.70;99.90
6008;DHT22;3032;49.484;11.112;2023-03-31T17:18:30;12.10;99.90
6008;DHT22;3032;49.484;11.112;2023-03-31T17:21:02;12.00;99.90
6008;DHT22;3032;49.484;11.112;2023-03-31T17:23:28;11.80;99.90
6008;DHT22;3032;49.484;11.112;2023-03-31T17:25:54;11.80;99.90
6008;DHT22;3032;49.484;11.112;2023-03-31T17:28:20;12.00;99.90
6008;DHT22;3032;49.484;11.112;2023-03-31T17:30:45;12.10;99.90
6008;DHT22;3032;49.484;11.112;2023-03-31T17:33:14;12.30;99.90
6008;DHT22;3032;49.484;11.112;2023-03-31T17:35:41;12.30;99.90
6008;DHT22;3032;49.484;11.112;2023-03-31T17:38:07;12.20;99.90
6008;DHT22;3032;49.484;11.112;2023-03-31T17:40:34;12.30;99.90
6008;DHT22;3032;49.484;11.112;2023-03-31T17:43:00;12.40;99.90
6008;DHT22;3032;49.484;11.112;2023-03-31T17:45:29;12.50;99.90
6008;DHT22;3032;49.484;11.112;2023-03-31T17:47:56;12.70;99.90
6008;DHT22;3032;49.484;11.112;2023-03-31T17:50:22;13.00;99.90
6008;DHT22;3032;49.484;11.112;2023-03-31T17:52:48;13.20;99.90
6008;DHT22;3032;49.484;11.112;2023-03-31T17:55:14;13.40;99.90
6008;DHT22;3032;49.484;11.112;2023-03-31T17:57:39;13.50;99.90
6008;DHT22;3032;49.484;11.112;2023-03-31T18:00:07;13.40;99.90
6008;DHT22;3032;49.484;11.112;2023-03-31T18:02:37;13.20;99.90
6008;DHT22;3032;49.484;11.112;2023-03-31T18:05:04;13.00;99.90
6008;DHT22;3032;49.484;11.112;2023-03-31T18:07:31;12.90;99.90
6008;DHT22;3032;49.484;11.112;2023-03-31T18:09:57;12.80;99.90
6008;DHT22;3032;49.484;11.112;2023-03-31T18:12:23;12.80;99.90
6008;DHT22;3032;49.484;11.112;2023-03-31T18:14:49;12.90;99.90
6008;DHT22;3032;49.484;11.112;2023-03-31T18:17:15;12.80;99.90
6008;DHT22;3032;49.484;11.112;2023-03-31T18:19:41;12.60;99.90
6008;DHT22;3032;49.484;11.112;2023-03-31T18:22:07;12.60;99.90
6008;DHT22;3032;49.484;11.112;2023-03-31T18:24:33;12.70;99.90
6008;DHT22;3032;49.484;11.112;2023-03-31T18:27:00;12.70;99.90
6008;DHT22;3032;49.484;11.112;2023-03-31T18:29:25;12.50;99.90
6008;DHT22;3032;49.484;11.112;2023-03-31T18:31:51;12.20;99.90
6008;DHT22;3032;49.484;11.112;2023-03-31T18:34:17;12.20;99.90
6008;DHT22;3032;49.484;11.112;2023-03-31T18:36:43;12.30;99.90
6008;DHT22;3032;49.484;11.112;2023-03-31T18:39:08;12.10;99.90
6008;DHT22;3032;49.484;11.112;2023-03-31T18:41:34;12.10;99.90
6008;DHT22;3032;49.484;11.112;2023-03-31T18:44:00;12.00;99.90
6008;DHT22;3032;49.484;11.112;2023-03-31T18:46:25;11.90;99.90
6008;DHT22;3032;49.484;11.112;2023-03-31T18:48:51;11.80;99.90
6008;DHT22;3032;49.484;11.112;2023-03-31T18:51:16;11.80;99.90
6008;DHT22;3032;49.484;11.112;2023-03-31T18:53:42;11.70;99.90